createdAt,value
2022-10-22T00:01:38.992Z,100538.84
2022-10-22T00:04:07.001Z,100539.84
2022-10-22T00:06:35.122Z,100529.44
2022-10-22T00:09:03.189Z,100527.88
2022-10-22T00:11:31.320Z,100519.28
2022-10-22T00:13:59.296Z,100524.34
2022-10-22T00:16:28.653Z,100519.44
2022-10-22T00:18:56.637Z,100484.53
2022-10-22T00:21:25.767Z,100515.78
2022-10-22T00:23:53.719Z,100509.31
2022-10-22T00:26:21.662Z,100505.66
2022-10-22T00:28:49.606Z,100506.38
2022-10-22T00:31:19.211Z,100506.25
2022-10-22T00:33:48.745Z,100504.81
2022-10-22T00:36:16.764Z,100504.81
2022-10-22T00:38:44.723Z,100503.97
2022-10-22T00:41:13.050Z,100502.84
2022-10-22T00:43:58.032Z,100491.88
2022-10-22T00:46:25.996Z,100488.75
2022-10-22T00:48:55.333Z,100492.16
2022-10-22T00:51:23.679Z,100493.59
2022-10-22T00:53:55.085Z,100490.75
2022-10-22T00:56:23.304Z,100486.94
2022-10-22T00:58:53.347Z,100486.94
2022-10-22T01:01:23.099Z,100483.44
2022-10-22T01:03:51.052Z,100481.72
2022-10-22T01:06:23.785Z,100473.56
2022-10-22T01:08:56.002Z,100472.88
2022-10-22T01:11:26.859Z,100466.13
2022-10-22T01:13:59.289Z,100436.72
2022-10-22T01:16:31.624Z,100462.03
2022-10-22T01:19:01.817Z,100450.94
2022-10-22T01:21:32.826Z,100455.00
2022-10-22T01:24:16.849Z,100461.19
2022-10-22T01:26:55.504Z,100455.00
2022-10-22T01:29:26.405Z,100459.38
2022-10-22T01:31:56.475Z,100456.69
2022-10-22T01:34:24.541Z,100449.66
2022-10-22T01:36:52.526Z,100439.53
2022-10-22T01:39:20.490Z,100456.16
2022-10-22T01:41:48.511Z,100454.16
2022-10-22T01:44:26.998Z,100454.59
2022-10-22T01:46:56.067Z,100447.00
2022-10-22T01:49:26.247Z,100455.59
2022-10-22T01:51:57.999Z,100432.63
2022-10-22T01:54:30.891Z,100443.06
2022-10-22T01:57:04.809Z,100457.00
2022-10-22T01:59:39.959Z,100449.66
2022-10-22T02:02:12.314Z,100453.88
2022-10-22T02:04:42.721Z,100456.69
2022-10-22T02:07:11.898Z,100438.13
2022-10-22T02:09:39.882Z,100445.03
2022-10-22T02:12:08.258Z,100451.94
2022-10-22T02:14:39.625Z,100460.34
2022-10-22T02:17:07.703Z,100448.53
2022-10-22T02:19:38.213Z,100434.63
2022-10-22T02:22:06.202Z,100452.63
2022-10-22T02:24:34.169Z,100455.44
2022-10-22T02:27:04.226Z,100437.56
2022-10-22T02:29:34.602Z,100455.84
2022-10-22T02:32:04.431Z,100450.81
2022-10-22T02:34:32.764Z,100454.47
2022-10-22T02:37:01.145Z,100459.81
2022-10-22T02:39:29.671Z,100457.28
2022-10-22T02:41:58.099Z,100457.41
2022-10-22T02:44:26.147Z,100453.03
2022-10-22T02:46:54.093Z,100453.75
2022-10-22T02:49:23.440Z,100447.69
2022-10-22T02:51:51.407Z,100442.34
2022-10-22T02:54:19.426Z,100443.78
2022-10-22T02:56:47.372Z,100439.53
2022-10-22T02:59:15.317Z,100421.81
2022-10-22T03:01:43.281Z,100434.19
2022-10-22T03:04:11.207Z,100422.53
2022-10-22T03:06:43.845Z,100418.88
2022-10-22T03:09:11.828Z,100422.38
2022-10-22T03:11:39.827Z,100413.09
2022-10-22T03:14:07.796Z,100421.53
2022-10-22T03:16:35.770Z,100427.59
2022-10-22T03:19:03.748Z,100426.63
2022-10-22T03:21:33.454Z,100421.28
2022-10-22T03:24:03.337Z,100415.63
2022-10-22T03:26:31.268Z,100406.34
2022-10-22T03:29:00.883Z,100401.97
2022-10-22T03:31:28.810Z,100394.94
2022-10-22T03:33:56.778Z,100391.16
2022-10-22T03:36:24.734Z,100393.38
2022-10-22T03:38:52.789Z,100394.81
2022-10-22T03:41:22.109Z,100393.38
2022-10-22T03:43:52.985Z,100393.38
2022-10-22T03:46:20.997Z,100410.53
2022-10-22T03:48:48.937Z,100398.31
2022-10-22T03:51:16.869Z,100395.94
2022-10-22T03:53:44.844Z,100388.63
2022-10-22T03:56:12.942Z,100384.13
2022-10-22T03:58:42.366Z,100384.66
2022-10-22T04:01:11.300Z,100388.88
2022-10-22T04:03:39.378Z,100384.53
2022-10-22T04:06:08.398Z,100384.97
2022-10-22T04:08:36.388Z,100388.03
2022-10-22T04:11:04.365Z,100384.38
2022-10-22T04:13:32.331Z,100371.75
2022-10-22T04:16:09.914Z,100373.56
2022-10-22T04:18:37.914Z,100364.97
2022-10-22T04:21:06.222Z,100348.94
2022-10-22T04:23:34.215Z,100359.34
2022-10-22T04:26:02.675Z,100364.97
2022-10-22T04:28:30.622Z,100364.13
2022-10-22T04:30:58.618Z,100365.41
2022-10-22T04:33:28.022Z,100363.44
2022-10-22T04:35:55.991Z,100355.13
2022-10-22T04:38:23.959Z,100353.44
2022-10-22T04:40:51.928Z,100354.59
2022-10-22T04:43:19.906Z,100343.59
2022-10-22T04:45:47.928Z,100357.50
2022-10-22T04:48:15.864Z,100352.16
2022-10-22T04:50:45.210Z,100359.91
2022-10-22T04:53:13.132Z,100362.28
2022-10-22T04:55:41.149Z,100363.41
2022-10-22T04:58:09.128Z,100357.75
2022-10-22T05:00:37.229Z,100367.91
2022-10-22T05:03:05.268Z,100361.97
2022-10-22T05:05:33.959Z,100354.66
2022-10-22T05:08:03.348Z,100358.69
2022-10-22T05:10:31.286Z,100360.34
2022-10-22T05:12:59.220Z,100362.84
2022-10-22T05:15:27.211Z,100379.00
2022-10-22T05:17:55.159Z,100382.19
2022-10-22T05:20:23.134Z,100380.41
2022-10-22T05:22:51.038Z,100377.53
2022-10-22T05:25:20.352Z,100383.88
2022-10-22T05:27:50.486Z,100385.72
2022-10-22T05:30:18.447Z,100389.25
2022-10-22T05:32:46.394Z,100392.47
2022-10-22T05:35:14.431Z,100405.47
2022-10-22T05:37:42.784Z,100413.03
2022-10-22T05:40:26.415Z,100404.50
2022-10-22T05:42:56.445Z,100412.25
2022-10-22T05:45:24.431Z,100418.91
2022-10-22T05:47:52.407Z,100426.34
2022-10-22T05:50:20.466Z,100421.31
2022-10-22T05:52:48.447Z,100395.75
2022-10-22T05:55:16.610Z,100432.09
2022-10-22T05:57:44.591Z,100440.84
2022-10-22T06:00:16.551Z,100447.91
2022-10-22T06:02:45.033Z,100436.44
2022-10-22T06:05:13.010Z,100435.41
2022-10-22T06:07:41.083Z,100437.72
2022-10-22T06:10:11.113Z,100434.28
2022-10-22T06:12:39.235Z,100426.31
2022-10-22T06:15:08.776Z,100422.41
2022-10-22T06:17:38.073Z,100415.94
2022-10-22T06:20:06.977Z,100422.19
2022-10-22T06:22:34.943Z,100417.06
2022-10-22T06:25:02.897Z,100425.56
2022-10-22T06:27:30.857Z,100431.78
2022-10-22T06:29:58.847Z,100437.56
2022-10-22T06:32:26.813Z,100433.72
2022-10-22T06:34:56.219Z,100434.16
2022-10-22T06:37:24.191Z,100435.63
2022-10-22T06:39:52.159Z,100438.75
2022-10-22T06:42:20.127Z,100431.13
2022-10-22T06:44:48.098Z,100433.69
2022-10-22T06:47:16.071Z,100432.59
2022-10-22T06:49:44.032Z,100437.69
2022-10-22T06:52:13.953Z,100438.03
2022-10-22T06:54:41.922Z,100435.16
2022-10-22T06:57:09.863Z,100436.34
2022-10-22T06:59:38.272Z,100428.66
2022-10-22T07:02:06.242Z,100419.69
2022-10-22T07:04:34.297Z,100421.66
2022-10-22T07:07:02.284Z,100416.81
2022-10-22T07:09:31.657Z,100419.56
2022-10-22T07:11:59.758Z,100418.13
2022-10-22T07:14:27.768Z,100414.88
2022-10-22T07:16:55.797Z,100424.91
2022-10-22T07:19:23.768Z,100427.50
2022-10-22T07:21:51.740Z,100429.41
2022-10-22T07:24:19.706Z,100436.31
2022-10-22T07:26:49.071Z,100431.72
2022-10-22T07:29:17.082Z,100430.03
2022-10-22T07:31:45.051Z,100423.69
2022-10-22T07:34:13.054Z,100433.69
2022-10-22T07:36:41.017Z,100419.41
2022-10-22T07:39:09.064Z,100410.56
2022-10-22T07:41:37.034Z,100405.59
2022-10-22T07:44:06.433Z,100399.81
2022-10-22T07:46:35.328Z,100403.22
2022-10-22T07:49:03.298Z,100399.97
2022-10-22T07:51:31.266Z,100391.44
2022-10-22T07:53:59.226Z,100358.19
2022-10-22T07:56:27.207Z,100385.63
2022-10-22T07:58:55.198Z,100373.69
2022-10-22T08:01:24.585Z,100376.00
2022-10-22T08:03:52.853Z,100371.59
2022-10-22T08:06:20.827Z,100360.94
2022-10-22T08:08:49.520Z,100360.50
2022-10-22T08:11:17.550Z,100358.22
2022-10-22T08:13:45.968Z,100365.72
2022-10-22T08:16:14.351Z,100364.91
2022-10-22T08:18:43.709Z,100358.63
2022-10-22T08:21:11.707Z,100358.78
2022-10-22T08:23:39.763Z,100349.47
2022-10-22T08:26:07.748Z,100347.59
2022-10-22T08:28:37.226Z,100349.97
2022-10-22T08:31:06.154Z,100339.63
2022-10-22T08:33:34.101Z,100337.75
2022-10-22T08:36:03.445Z,100338.75
2022-10-22T08:38:31.759Z,100334.44
2022-10-22T08:41:04.585Z,100333.56
2022-10-22T08:44:12.263Z,100351.72
2022-10-22T08:47:03.196Z,100349.72
2022-10-22T08:49:34.302Z,100347.59
2022-10-22T08:52:05.587Z,100337.75
2022-10-22T08:54:37.823Z,100344.13
2022-10-22T08:57:20.385Z,100344.56
2022-10-22T08:59:49.308Z,100337.88
2022-10-22T09:02:25.561Z,100338.66
2022-10-22T09:04:55.435Z,100339.50
2022-10-22T09:07:25.412Z,100336.31
2022-10-22T09:09:53.375Z,100332.97
2022-10-22T09:12:21.324Z,100342.47
2022-10-22T09:14:49.322Z,100348.97
2022-10-22T09:17:21.298Z,100338.38
2022-10-22T09:19:55.412Z,100350.03
2022-10-22T09:22:29.219Z,100340.03
2022-10-22T09:24:59.366Z,100338.16
2022-10-22T09:27:29.143Z,100344.03
2022-10-22T09:29:57.153Z,100339.13
2022-10-22T09:32:25.107Z,100333.19
2022-10-22T09:34:56.726Z,100322.69
2022-10-22T09:37:28.116Z,100326.41
2022-10-22T09:39:56.447Z,100325.75
2022-10-22T09:42:24.474Z,100318.53
2022-10-22T09:44:54.079Z,100307.41
2022-10-22T09:47:42.714Z,100323.69
2022-10-22T09:50:27.927Z,100310.78
2022-10-22T09:53:00.533Z,100314.94
2022-10-22T09:55:28.487Z,100302.25
2022-10-22T09:57:56.691Z,100301.69
2022-10-22T10:00:26.068Z,100295.69
2022-10-22T10:02:56.476Z,100285.75
2022-10-22T10:05:28.087Z,100274.59
2022-10-22T10:07:58.250Z,100278.88
2022-10-22T10:10:36.068Z,100269.13
2022-10-22T10:13:10.358Z,100247.22
2022-10-22T10:15:40.015Z,100258.94
2022-10-22T10:18:12.239Z,100258.19
2022-10-22T10:20:42.071Z,100257.38
2022-10-22T10:23:14.998Z,100239.16
2022-10-22T10:25:49.868Z,100253.72
2022-10-22T10:28:26.539Z,100237.00
2022-10-22T10:30:58.484Z,100245.50
2022-10-22T10:33:32.893Z,100243.75
2022-10-22T10:36:04.801Z,100236.72
2022-10-22T10:38:39.498Z,100235.19
2022-10-22T10:41:17.923Z,100227.81
2022-10-22T10:43:52.529Z,100223.97
2022-10-22T10:46:23.975Z,100224.09
2022-10-22T10:48:53.151Z,100226.19
2022-10-22T10:51:34.429Z,100224.91
2022-10-22T10:54:14.937Z,100211.53
2022-10-22T10:56:45.903Z,100216.03
2022-10-22T10:59:19.686Z,100198.75
2022-10-22T11:01:54.938Z,100208.53
2022-10-22T11:04:31.231Z,100202.03
2022-10-22T11:07:10.875Z,100209.56
2022-10-22T11:09:42.402Z,100209.91
2022-10-22T11:12:13.854Z,100192.53
2022-10-22T11:14:46.350Z,100189.22
2022-10-22T11:17:16.046Z,100184.81
2022-10-22T11:19:51.562Z,100191.84
2022-10-22T11:22:26.785Z,100179.94
2022-10-22T11:24:57.679Z,100182.13
2022-10-22T11:27:28.392Z,100178.81
2022-10-22T11:29:58.854Z,100184.28
2022-10-22T11:32:26.850Z,100168.75
2022-10-22T11:34:55.873Z,100161.66
2022-10-22T11:37:23.844Z,100148.06
2022-10-22T11:39:53.650Z,100152.38
2022-10-22T11:42:24.055Z,100151.03
2022-10-22T11:45:00.922Z,100151.28
2022-10-22T11:47:29.771Z,100155.31
2022-10-22T11:49:59.602Z,100144.66
2022-10-22T11:52:29.395Z,100138.34
2022-10-22T11:54:57.941Z,100141.81
2022-10-22T11:57:33.119Z,100133.22
2022-10-22T12:00:01.518Z,100126.44
2022-10-22T12:02:43.151Z,100120.06
2022-10-22T12:05:36.168Z,100115.41
2022-10-22T12:08:24.171Z,100096.16
2022-10-22T12:11:07.466Z,100106.88
2022-10-22T12:13:58.557Z,100098.28
2022-10-22T12:16:32.493Z,100104.06
2022-10-22T12:19:16.218Z,100099.38
2022-10-22T12:21:45.695Z,100092.47
2022-10-22T12:24:14.702Z,100089.16
2022-10-22T12:26:42.664Z,100084.19
2022-10-22T12:29:14.227Z,100058.59
2022-10-22T12:31:42.918Z,100064.66
2022-10-22T12:34:14.651Z,100055.03
2022-10-22T12:36:42.622Z,100064.94
2022-10-22T12:39:15.574Z,100066.56
2022-10-22T12:41:44.030Z,100063.19
2022-10-22T12:44:15.103Z,100026.75
2022-10-22T12:46:43.692Z,100051.81
2022-10-22T12:49:16.052Z,100050.50
2022-10-22T12:51:44.296Z,100046.63
2022-10-22T12:54:19.951Z,100040.06
2022-10-22T12:56:48.378Z,100046.16
2022-10-22T12:59:20.508Z,100046.72
2022-10-22T13:01:49.635Z,100048.41
2022-10-22T13:04:24.431Z,100047.88
2022-10-22T13:06:52.842Z,100046.47
2022-10-22T13:09:25.141Z,100053.91
2022-10-22T13:11:58.293Z,100051.72
2022-10-22T13:14:30.718Z,100054.44
2022-10-22T13:17:09.298Z,100042.56
2022-10-22T13:19:38.782Z,100049.69
2022-10-22T13:22:06.766Z,100049.97
2022-10-22T13:24:39.163Z,100049.38
2022-10-22T13:27:08.990Z,100042.22
2022-10-22T13:29:38.360Z,100044.41
2022-10-22T13:32:06.588Z,100036.72
2022-10-22T13:34:36.362Z,100034.78
2022-10-22T13:37:04.325Z,100037.81
2022-10-22T13:39:33.542Z,100017.66
2022-10-22T13:42:01.513Z,100005.25
2022-10-22T13:44:29.466Z,100034.78
2022-10-22T13:46:58.814Z,100039.97
2022-10-22T13:49:26.768Z,100033.38
2022-10-22T13:51:54.767Z,100031.69
2022-10-22T13:54:24.076Z,100011.84
2022-10-22T13:56:52.802Z,100024.25
2022-10-22T13:59:22.997Z,100018.44
2022-10-22T14:01:52.015Z,100003.03
2022-10-22T14:04:21.317Z,100005.78
2022-10-22T14:06:49.326Z,100012.94
2022-10-22T14:09:17.425Z,99998.53
2022-10-22T14:11:45.486Z,100014.03
2022-10-22T14:14:17.150Z,100012.63
2022-10-22T14:16:45.261Z,100006.88
2022-10-22T14:19:16.379Z,100011.81
2022-10-22T14:21:45.836Z,100005.44
2022-10-22T14:24:13.810Z,100005.66
2022-10-22T14:26:41.802Z,100005.09
2022-10-22T14:29:11.073Z,100000.06
2022-10-22T14:34:10.860Z,99993.34
2022-10-22T14:36:38.896Z,99993.84
2022-10-22T14:39:08.219Z,100001.47
2022-10-22T14:41:36.259Z,99996.41
2022-10-22T14:44:04.243Z,99995.69
2022-10-22T14:46:32.208Z,99985.63
2022-10-22T14:49:00.180Z,99978.91
2022-10-22T14:51:28.197Z,99989.16
2022-10-22T14:53:56.246Z,99976.63
2022-10-22T14:56:25.582Z,99980.06
2022-10-22T14:58:53.836Z,99975.41
2022-10-22T15:01:21.829Z,99976.78
2022-10-22T15:03:49.806Z,99981.22
2022-10-22T15:06:17.929Z,99989.03
2022-10-22T15:08:46.073Z,99992.03
2022-10-22T15:11:14.194Z,99987.28
2022-10-22T15:13:43.711Z,99996.50
2022-10-22T15:16:12.207Z,99995.25
2022-10-22T15:18:40.158Z,99990.09
2022-10-22T15:21:08.980Z,99989.91
2022-10-22T15:23:39.293Z,99978.03
2022-10-22T15:26:08.547Z,99978.16
2022-10-22T15:28:37.421Z,99985.94
2022-10-22T15:31:07.256Z,99971.97
2022-10-22T15:33:35.500Z,99993.75
2022-10-22T15:36:11.054Z,99997.34
2022-10-22T15:38:39.040Z,99996.28
2022-10-22T15:41:07.819Z,100006.50
2022-10-22T15:43:35.796Z,100018.41
2022-10-22T15:46:12.623Z,100015.81
2022-10-22T15:48:40.789Z,100017.94
2022-10-22T15:51:10.510Z,100006.56
2022-10-22T15:53:38.453Z,100008.09
2022-10-22T15:56:07.023Z,100005.16
2022-10-22T15:58:35.000Z,100006.56
2022-10-22T16:01:07.346Z,100008.38
2022-10-22T16:03:36.837Z,100016.06
2022-10-22T16:06:05.467Z,100024.13
2022-10-22T16:08:33.502Z,100023.56
2022-10-22T16:11:01.509Z,100019.03
2022-10-22T16:13:29.479Z,100018.69
2022-10-22T16:15:57.464Z,100028.03
2022-10-22T16:18:25.484Z,100038.00
2022-10-22T16:20:54.792Z,100037.28
2022-10-22T16:23:22.806Z,100042.38
2022-10-22T16:25:51.031Z,100039.53
2022-10-22T16:28:18.959Z,100050.91
2022-10-22T16:30:46.912Z,100045.91
2022-10-22T16:33:14.890Z,100047.44
2022-10-22T16:35:42.975Z,100046.47
2022-10-22T16:38:12.315Z,100032.66
2022-10-22T16:40:40.304Z,100040.53
2022-10-22T16:43:08.387Z,100052.16
2022-10-22T16:45:36.350Z,100043.03
2022-10-22T16:48:04.382Z,100051.75
2022-10-22T16:50:32.330Z,100051.94
2022-10-22T16:53:00.274Z,100056.16
2022-10-22T16:55:29.607Z,100052.16
2022-10-22T16:57:57.619Z,100053.09
2022-10-22T17:00:25.716Z,100058.28
2022-10-22T17:02:54.187Z,100044.06
2022-10-22T17:05:22.505Z,100056.03
2022-10-22T17:07:50.569Z,100046.75
2022-10-22T17:10:19.781Z,100044.09
2022-10-22T17:12:49.263Z,100041.28
2022-10-22T17:15:17.350Z,100042.63
2022-10-22T17:17:48.451Z,100037.59
2022-10-22T17:20:16.387Z,100036.75
2022-10-22T17:22:44.356Z,100032.13
2022-10-22T17:25:14.197Z,100032.13
2022-10-22T17:27:42.566Z,100039.34
2022-10-22T17:30:14.122Z,100037.88
2022-10-22T17:32:42.128Z,100040.22
2022-10-22T17:35:10.447Z,100033.94
2022-10-22T17:37:38.427Z,100028.06
2022-10-22T17:40:07.233Z,100033.41
2022-10-22T17:42:35.373Z,100036.75
2022-10-22T17:45:03.365Z,100035.84
2022-10-22T17:47:32.672Z,100036.66
2022-10-22T17:50:00.633Z,100038.41
2022-10-22T17:52:28.561Z,100040.91
2022-10-22T17:54:56.531Z,100042.13
2022-10-22T17:57:24.510Z,100042.59
2022-10-22T17:59:52.571Z,100053.94
2022-10-22T18:02:20.545Z,100050.16
2022-10-22T18:04:51.603Z,100045.97
2022-10-22T18:07:20.828Z,100051.22
2022-10-22T18:09:48.998Z,100048.09
2022-10-22T18:12:18.143Z,100044.69
2022-10-22T18:14:47.056Z,100047.56
2022-10-22T18:19:50.683Z,100042.28
2022-10-22T18:22:18.687Z,100037.44
2022-10-22T18:24:46.650Z,100028.22
2022-10-22T18:27:14.587Z,100021.94
2022-10-22T18:29:42.557Z,100021.22
2022-10-22T18:32:13.113Z,100021.00
2022-10-22T18:34:41.413Z,100012.44
2022-10-22T18:37:10.737Z,100018.66
2022-10-22T18:39:38.680Z,100019.03
2022-10-22T18:42:07.309Z,100007.44
2022-10-22T18:44:35.709Z,100007.75
2022-10-22T18:47:03.679Z,100012.59
2022-10-22T18:49:31.602Z,99997.31
2022-10-22T18:51:59.546Z,99997.16
2022-10-22T18:54:28.930Z,99997.94
2022-10-22T18:57:00.496Z,100015.78
2022-10-22T18:59:30.045Z,100008.06
2022-10-22T19:01:59.598Z,100012.44
2022-10-22T19:04:31.047Z,100004.59
2022-10-22T19:06:59.218Z,100007.59
2022-10-22T19:09:28.937Z,99999.72
2022-10-22T19:11:56.949Z,100003.31
2022-10-22T19:14:24.902Z,99995.00
2022-10-22T19:16:52.906Z,100003.63
2022-10-22T19:19:21.607Z,100001.81
2022-10-22T19:21:49.563Z,100000.88
2022-10-22T19:24:17.961Z,100002.97
2022-10-22T19:26:47.718Z,100004.94
2022-10-22T19:29:16.178Z,100000.22
2022-10-22T19:31:44.503Z,100007.00
2022-10-22T19:34:12.475Z,100014.22
2022-10-22T19:36:40.421Z,100010.50
2022-10-22T19:39:08.960Z,100000.97
2022-10-22T19:41:37.008Z,100008.97
2022-10-22T19:44:06.354Z,100002.81
2022-10-22T19:46:34.323Z,100013.31
2022-10-22T19:49:03.202Z,100011.31
2022-10-22T19:51:31.794Z,100019.34
2022-10-22T19:54:00.357Z,99994.09
2022-10-22T19:56:28.410Z,100021.88
2022-10-22T19:58:56.386Z,100023.97
2022-10-22T20:01:25.889Z,100017.31
2022-10-22T20:03:53.961Z,100019.00
2022-10-22T20:06:22.130Z,100009.84
2022-10-22T20:08:53.723Z,100009.44
2022-10-22T20:11:25.086Z,100002.38
2022-10-22T20:13:53.045Z,100005.25
2022-10-22T20:16:23.129Z,99980.25
2022-10-22T20:18:52.638Z,99990.66
2022-10-22T20:21:20.663Z,99993.13
2022-10-22T20:23:48.709Z,99997.69
2022-10-22T20:26:16.699Z,99993.31
2022-10-22T20:28:44.643Z,99994.75
2022-10-22T20:31:12.873Z,99997.44
2022-10-22T20:33:40.838Z,99998.03
2022-10-22T20:36:17.856Z,99983.84
2022-10-22T20:38:48.150Z,99988.88
2022-10-22T20:41:17.264Z,99985.91
2022-10-22T20:43:45.550Z,99981.91
2022-10-22T20:46:16.316Z,99978.81
2022-10-22T20:48:44.257Z,99985.47
2022-10-22T20:51:13.594Z,99983.59
2022-10-22T20:53:41.640Z,99986.94
2022-10-22T20:56:10.853Z,99978.38
2022-10-22T20:58:39.239Z,99979.59
2022-10-22T21:01:12.187Z,99976.88
2022-10-22T21:03:40.479Z,99973.72
2022-10-22T21:06:08.910Z,99971.63
2022-10-22T21:08:38.288Z,99966.63
2022-10-22T21:11:06.529Z,99969.13
2022-10-22T21:13:34.497Z,99965.78
2022-10-22T21:16:08.382Z,99974.94
2022-10-22T21:18:36.353Z,99977.81
2022-10-22T21:21:05.087Z,99969.47
2022-10-22T21:23:33.109Z,99967.63
2022-10-22T21:26:02.517Z,99962.38
2022-10-22T21:31:03.450Z,99962.69
2022-10-22T21:33:31.386Z,99961.81
2022-10-22T21:35:59.426Z,99950.94
2022-10-22T21:38:27.404Z,99956.94
2022-10-22T21:40:55.489Z,99963.13
2022-10-22T21:43:24.874Z,99964.34
2022-10-22T21:45:52.885Z,99958.28
2022-10-22T21:48:20.879Z,99948.22
2022-10-22T21:50:49.975Z,99954.31
2022-10-22T21:53:17.931Z,99951.84
2022-10-22T21:55:45.881Z,99952.88
2022-10-22T21:58:13.834Z,99946.69
2022-10-22T22:00:43.169Z,99945.03
2022-10-22T22:03:11.163Z,99940.41
2022-10-22T22:05:39.527Z,99931.94
2022-10-22T22:08:07.826Z,99946.97
2022-10-22T22:10:35.848Z,99937.84
2022-10-22T22:13:03.816Z,99943.72
2022-10-22T22:15:31.840Z,99932.84
2022-10-22T22:18:01.192Z,99929.09
2022-10-22T22:20:29.766Z,99926.16
2022-10-22T22:22:57.777Z,99929.44
2022-10-22T22:25:25.779Z,99927.34
2022-10-22T22:27:53.814Z,99937.50
2022-10-22T22:30:21.839Z,99934.41
2022-10-22T22:32:49.801Z,99929.66
2022-10-22T22:35:19.354Z,99928.19
2022-10-22T22:37:47.420Z,99936.47
2022-10-22T22:40:15.532Z,99928.13
2022-10-22T22:42:43.624Z,99923.31
2022-10-22T22:45:11.606Z,99927.69
2022-10-22T22:47:39.783Z,99925.56
2022-10-22T22:50:09.085Z,99918.28
2022-10-22T22:52:38.631Z,99925.16
2022-10-22T22:55:07.867Z,99930.19
2022-10-22T22:57:36.341Z,99926.06
2022-10-22T23:00:04.446Z,99928.38
2022-10-22T23:02:32.453Z,99932.75
2022-10-22T23:05:00.412Z,99938.78
2022-10-22T23:07:28.387Z,99926.97
2022-10-22T23:09:57.739Z,99934.03
2022-10-22T23:12:25.822Z,99935.06
2022-10-22T23:14:53.825Z,99928.63
2022-10-22T23:17:21.783Z,99928.22
2022-10-22T23:19:49.815Z,99928.22
2022-10-22T23:22:17.744Z,99926.16
2022-10-22T23:24:45.793Z,99921.97
2022-10-22T23:27:15.192Z,99912.41
2022-10-22T23:29:43.142Z,99908.44
2022-10-22T23:32:14.405Z,99900.91
2022-10-22T23:34:42.363Z,99904.00
2022-10-22T23:37:11.308Z,99896.91
2022-10-22T23:39:39.271Z,99887.69
2022-10-22T23:42:07.217Z,99875.19
2022-10-22T23:44:36.661Z,99877.22
2022-10-22T23:47:04.662Z,99875.56
2022-10-22T23:49:32.835Z,99875.19
2022-10-22T23:52:00.778Z,99878.66
2022-10-22T23:54:28.750Z,99884.50
2022-10-22T23:56:56.745Z,99885.59
2022-10-22T23:59:24.729Z,99883.91
